Time;durP1;ratioP1;P1;durP2;ratioP2;P2;SDS_P1;SDS_P2;PMS_P1;PMS_P2;Temp;Humidity;BMP_temperature;BMP_pressure;BME280_temperature;BME280_humidity;BME280_pressure;Samples;Min_cycle;Max_cycle;Signal;HPM_P1;HPM_P2
2021/08/02 00:00:21;;;;;;;;;;;;;;;14.88;87.82;100223.09;5028523;28;20428;-76
2021/08/02 00:02:49;;;;;;;;;;;;;;;14.82;90.22;100222.81;5029235;28;19929;-76
2021/08/02 00:05:15;;;;;;;;;;;;;;;14.77;89.89;100233.19;5029751;28;19922;-76
2021/08/02 00:07:41;;;;;;;;;;;;;;;14.72;89.86;100230.25;5029483;28;20063;-76
2021/08/02 00:10:10;;;;;;;;;;;;;;;14.69;90.37;100233.31;5029596;28;19917;-75
2021/08/02 00:12:40;;;;;;;;;;;;;;;14.73;89.76;100223.94;5029509;28;19928;-76
2021/08/02 00:15:06;;;;;;;;;;;;;;;14.76;89.68;100225.41;5022009;28;20368;-76
2021/08/02 00:17:31;;;;;;;;;;;;;;;14.81;88.54;100223.00;5029651;28;20029;-76
2021/08/02 00:19:56;;;;;;;;;;;;;;;14.83;88.19;100219.16;5029242;28;19935;-76
2021/08/02 00:22:21;;;;;;;;;;;;;;;14.86;88.89;100217.94;5028977;28;20390;-76
2021/08/02 00:24:47;;;;;;;;;;;;;;;14.86;89.05;100231.25;5028356;28;20023;-76
2021/08/02 00:27:14;;;;;;;;;;;;;;;14.83;89.06;100224.47;5029466;28;19980;-76
2021/08/02 00:29:40;;;;;;;;;;;;;;;14.84;89.67;100222.63;5029160;28;20396;-76
2021/08/02 00:32:06;;;;;;;;;;;;;;;14.82;89.39;100216.66;5029153;28;19921;-76
2021/08/02 00:34:31;;;;;;;;;;;;;;;14.84;88.51;100214.66;5028867;28;19925;-76
2021/08/02 00:37:02;;;;;;;;;;;;;;;14.84;88.57;100215.47;5028509;28;19943;-76
2021/08/02 00:39:34;;;;;;;;;;;;;;;14.78;89.73;100226.88;5027856;28;19968;-76
2021/08/02 00:41:59;;;;;;;;;;;;;;;14.79;89.21;100223.19;5027858;28;20008;-76
2021/08/02 00:44:42;;;;;;;;;;;;;;;14.79;88.59;100217.03;5028313;28;20008;-76
2021/08/02 00:47:15;;;;;;;;;;;;;;;14.76;90.26;100217.44;5026747;28;19949;-76
2021/08/02 00:49:47;;;;;;;;;;;;;;;14.69;90.47;100221.84;5028920;28;19928;-76
2021/08/02 00:52:12;;;;;;;;;;;;;;;14.61;90.11;100217.44;5028554;28;19921;-77
2021/08/02 00:54:38;;;;;;;;;;;;;;;14.59;90.58;100214.16;5028549;28;20447;-77
2021/08/02 00:57:04;;;;;;;;;;;;;;;14.54;91.21;100217.38;5029240;28;19943;-76
2021/08/02 00:59:29;;;;;;;;;;;;;;;14.58;89.03;100213.31;5029148;28;20317;-76
2021/08/02 01:01:55;;;;;;;;;;;;;;;14.54;91.17;100216.53;5028688;28;19925;-76
2021/08/02 01:04:23;;;;;;;;;;;;;;;14.48;90.76;100217.25;5026704;28;20411;-76
2021/08/02 01:06:50;;;;;;;;;;;;;;;14.50;90.52;100221.38;5029653;28;19921;-75
2021/08/02 01:09:16;;;;;;;;;;;;;;;14.57;89.53;100224.16;5032418;28;19921;-76
2021/08/02 01:11:43;;;;;;;;;;;;;;;14.59;89.59;100224.78;5032685;28;19923;-75
2021/08/02 01:14:10;;;;;;;;;;;;;;;14.60;90.06;100221.09;5031636;28;19927;-76
2021/08/02 01:16:37;;;;;;;;;;;;;;;14.62;90.12;100222.56;5032120;28;19921;-76
2021/08/02 01:19:08;;;;;;;;;;;;;;;14.57;90.75;100217.00;5028943;28;19928;-76
2021/08/02 01:21:36;;;;;;;;;;;;;;;14.50;90.79;100215.22;5032740;28;20384;-76
2021/08/02 01:24:01;;;;;;;;;;;;;;;14.40;91.16;100218.16;5029790;28;20447;-76
2021/08/02 01:26:41;;;;;;;;;;;;;;;14.37;91.05;100214.06;5032204;28;19964;-76
2021/08/02 01:29:25;;;;;;;;;;;;;;;14.32;90.37;100213.75;5031132;28;20305;-76
2021/08/02 01:31:51;;;;;;;;;;;;;;;14.28;91.06;100220.47;5029308;28;19927;-76
2021/08/02 01:34:16;;;;;;;;;;;;;;;14.24;91.47;100216.50;5029774;28;19921;-76
2021/08/02 01:36:41;;;;;;;;;;;;;;;14.24;91.28;100217.34;5031871;28;19940;-76
2021/08/02 01:39:06;;;;;;;;;;;;;;;14.25;90.85;100218.16;5031779;28;19940;-77
2021/08/02 01:41:31;;;;;;;;;;;;;;;14.23;91.25;100231.66;5031807;28;20332;-76
2021/08/02 01:43:57;;;;;;;;;;;;;;;14.18;91.27;100227.88;5030147;28;19929;-76
2021/08/02 01:46:28;;;;;;;;;;;;;;;14.16;90.71;100224.59;5031551;28;19994;-76
2021/08/02 01:49:13;;;;;;;;;;;;;;;14.14;90.60;100224.75;5032291;28;20448;-76
2021/08/02 01:51:44;;;;;;;;;;;;;;;14.09;90.19;100229.00;5031601;28;20335;-76
2021/08/02 01:54:18;;;;;;;;;;;;;;;14.03;90.09;100230.53;5030671;28;19921;-76
2021/08/02 01:57:03;;;;;;;;;;;;;;;13.98;91.78;100228.41;5031434;28;20340;-76
2021/08/02 01:59:31;;;;;;;;;;;;;;;13.97;91.15;100237.41;5012866;28;19975;-76
2021/08/02 02:02:02;;;;;;;;;;;;;;;13.94;90.38;100243.09;5031582;28;20018;-76
2021/08/02 02:04:29;;;;;;;;;;;;;;;13.93;91.85;100240.59;5025937;28;19932;-76
2021/08/02 02:06:57;;;;;;;;;;;;;;;13.93;90.84;100238.75;5031014;28;19971;-75
2021/08/02 02:09:22;;;;;;;;;;;;;;;13.93;91.17;100244.06;5031070;28;19921;-76
2021/08/02 02:11:48;;;;;;;;;;;;;;;13.94;91.59;100242.22;5029431;28;19932;-77
2021/08/02 02:14:14;;;;;;;;;;;;;;;13.98;91.23;100243.53;5030514;28;19921;-75
2021/08/02 02:16:41;;;;;;;;;;;;;;;13.97;90.58;100244.56;5029890;28;19975;-77
2021/08/02 02:19:08;;;;;;;;;;;;;;;13.94;92.04;100244.91;5031177;28;19960;-76
2021/08/02 02:21:33;;;;;;;;;;;;;;;14.01;91.82;100248.47;5030591;28;19921;-75
2021/08/02 02:23:59;;;;;;;;;;;;;;;14.05;91.48;100251.63;5030949;28;19995;-76
2021/08/02 02:26:27;;;;;;;;;;;;;;;14.06;91.30;100256.75;5030013;28;19928;-77
2021/08/02 02:28:52;;;;;;;;;;;;;;;14.00;91.08;100252.97;5030620;28;19928;-76
2021/08/02 02:31:19;;;;;;;;;;;;;;;13.97;91.62;100253.34;5029364;28;19921;-76
2021/08/02 02:33:45;;;;;;;;;;;;;;;13.94;90.38;100252.88;5030407;28;20382;-76
2021/08/02 02:36:10;;;;;;;;;;;;;;;13.91;91.48;100247.91;5030264;28;20028;-76
2021/08/02 02:38:37;;;;;;;;;;;;;;;13.88;90.67;100258.94;5030888;28;19921;-75
2021/08/02 02:41:02;;;;;;;;;;;;;;;13.85;91.30;100251.28;5030790;28;19928;-76
2021/08/02 02:43:28;;;;;;;;;;;;;;;13.82;90.43;100252.47;5030122;28;20322;-75
2021/08/02 02:45:53;;;;;;;;;;;;;;;13.80;91.27;100259.81;5029570;28;19921;-77
2021/08/02 02:48:19;;;;;;;;;;;;;;;13.77;91.10;100263.63;5029418;28;19940;-77
2021/08/02 02:50:47;;;;;;;;;;;;;;;13.76;90.43;100271.81;5030541;28;20267;-76
2021/08/02 02:53:13;;;;;;;;;;;;;;;13.73;90.94;100265.03;5030496;28;20384;-75
2021/08/02 02:55:38;;;;;;;;;;;;;;;13.72;91.40;100267.84;5029285;28;19921;-77
2021/08/02 02:58:04;;;;;;;;;;;;;;;13.74;91.28;100269.31;5030678;28;19928;-76
2021/08/02 03:00:29;;;;;;;;;;;;;;;13.71;91.27;100269.69;5030241;28;19927;-76
2021/08/02 03:02:55;;;;;;;;;;;;;;;13.67;90.90;100271.03;5029983;28;19925;-76
2021/08/02 03:05:22;;;;;;;;;;;;;;;13.60;90.22;100268.25;5030724;28;19957;-76
2021/08/02 03:07:52;;;;;;;;;;;;;;;13.56;91.06;100272.31;5033239;28;19933;-76
2021/08/02 03:10:19;;;;;;;;;;;;;;;13.52;91.40;100271.00;5030207;28;19925;-76
2021/08/02 03:12:46;;;;;;;;;;;;;;;13.48;91.09;100269.69;5028839;28;20008;-76
2021/08/02 03:15:11;;;;;;;;;;;;;;;13.46;90.23;100270.88;5029894;28;20032;-76
2021/08/02 03:17:36;;;;;;;;;;;;;;;13.42;91.21;100265.09;5030074;28;20402;-77
2021/08/02 03:20:03;;;;;;;;;;;;;;;13.40;91.58;100272.41;5029801;28;19940;-76
2021/08/02 03:22:33;;;;;;;;;;;;;;;13.38;90.90;100272.56;5029789;28;19929;-76
2021/08/02 03:25:09;;;;;;;;;;;;;;;13.38;91.10;100274.41;5028674;28;19925;-76
2021/08/02 03:27:57;;;;;;;;;;;;;;;13.33;91.32;100269.63;5030086;28;20028;-77
2021/08/02 03:30:23;;;;;;;;;;;;;;;13.29;91.64;100272.81;4977514;28;19925;-75
2021/08/02 03:32:50;;;;;;;;;;;;;;;13.28;91.31;100281.78;5028541;28;19963;-76
2021/08/02 03:35:16;;;;;;;;;;;;;;;13.26;92.23;100273.97;5029669;28;19925;-76
2021/08/02 03:37:42;;;;;;;;;;;;;;;13.28;92.31;100285.25;5029255;28;19921;-76
2021/08/02 03:40:09;;;;;;;;;;;;;;;13.29;92.33;100280.78;5030014;28;19921;-76
2021/08/02 03:42:39;;;;;;;;;;;;;;;13.26;90.82;100289.06;5029244;28;20393;-75
2021/08/02 03:45:04;;;;;;;;;;;;;;;13.24;92.11;100289.22;5029599;28;19923;-77
2021/08/02 03:47:30;;;;;;;;;;;;;;;13.24;91.55;100291.88;5029820;28;19921;-76
2021/08/02 03:49:55;;;;;;;;;;;;;;;13.23;93.13;100300.88;5029794;28;19917;-76
2021/08/02 03:52:21;;;;;;;;;;;;;;;13.23;92.76;100297.38;5028861;28;20316;-76
2021/08/02 03:54:46;;;;;;;;;;;;;;;13.29;92.34;100299.38;5029002;28;19928;-76
2021/08/02 03:57:12;;;;;;;;;;;;;;;13.29;91.41;100302.84;5029915;28;19928;-76
2021/08/02 03:59:37;;;;;;;;;;;;;;;13.28;92.25;100303.84;5029558;28;19928;-77
2021/08/02 04:02:03;;;;;;;;;;;;;;;13.25;91.77;100298.88;5022935;28;19929;-76
2021/08/02 04:04:28;;;;;;;;;;;;;;;13.30;92.03;100308.97;5026870;28;19925;-75
2021/08/02 04:06:54;;;;;;;;;;;;;;;13.33;92.24;100311.31;5028341;28;19924;-76
2021/08/02 04:09:19;;;;;;;;;;;;;;;13.32;92.15;100312.28;5029113;28;19922;-76
2021/08/02 04:11:45;;;;;;;;;;;;;;;13.33;91.63;100303.34;5028980;28;19925;-76
2021/08/02 04:14:10;;;;;;;;;;;;;;;13.34;91.72;100311.09;5022926;28;20321;-76
2021/08/02 04:16:36;;;;;;;;;;;;;;;13.37;91.75;100310.78;5029391;28;19956;-76
2021/08/02 04:19:01;;;;;;;;;;;;;;;13.40;91.80;100309.59;5029608;28;20374;-77
2021/08/02 04:21:26;;;;;;;;;;;;;;;13.35;92.09;100318.09;5028329;28;19927;-76
2021/08/02 04:23:54;;;;;;;;;;;;;;;13.37;91.46;100315.22;5027128;28;20309;-76
2021/08/02 04:26:19;;;;;;;;;;;;;;;13.35;91.39;100312.78;5028124;28;19917;-75
2021/08/02 04:28:44;;;;;;;;;;;;;;;13.38;91.78;100311.59;5029160;28;19952;-76
2021/08/02 04:31:10;;;;;;;;;;;;;;;13.41;92.06;100315.72;5029119;28;20362;-75
2021/08/02 04:33:36;;;;;;;;;;;;;;;13.42;91.65;100312.91;5028731;28;19933;-77
2021/08/02 04:36:01;;;;;;;;;;;;;;;13.45;91.60;100314.38;5028427;28;19925;-76
2021/08/02 04:38:26;;;;;;;;;;;;;;;13.49;91.94;100316.50;5029479;28;19928;-75
2021/08/02 04:40:51;;;;;;;;;;;;;;;13.52;92.26;100318.81;5029044;28;20401;-76
2021/08/02 04:43:17;;;;;;;;;;;;;;;13.52;91.96;100318.00;5032492;28;19951;-76
2021/08/02 04:45:42;;;;;;;;;;;;;;;13.59;92.21;100318.94;5031327;28;20396;-77
2021/08/02 04:48:07;;;;;;;;;;;;;;;13.66;92.94;100317.22;5033244;28;20056;-76
2021/08/02 04:50:32;;;;;;;;;;;;;;;13.74;92.27;100306.53;5033877;28;19921;-77
2021/08/02 04:52:57;;;;;;;;;;;;;;;13.79;91.90;100309.47;5033451;28;20388;-76
2021/08/02 04:55:23;;;;;;;;;;;;;;;13.92;91.74;100314.22;5032237;28;19975;-76
2021/08/02 04:57:48;;;;;;;;;;;;;;;14.03;91.16;100315.59;5032752;28;19918;-75
2021/08/02 05:00:13;;;;;;;;;;;;;;;14.12;91.65;100311.88;5031884;28;20016;-76
2021/08/02 05:02:39;;;;;;;;;;;;;;;14.15;90.76;100319.47;5032275;28;20011;-76
2021/08/02 05:05:04;;;;;;;;;;;;;;;14.18;90.80;100313.81;5032042;28;19921;-77
2021/08/02 05:07:29;;;;;;;;;;;;;;;14.26;91.09;100307.59;5032551;28;19917;-75
2021/08/02 05:09:55;;;;;;;;;;;;;;;14.30;90.98;100310.69;5032423;28;20368;-76
2021/08/02 05:12:20;;;;;;;;;;;;;;;14.35;90.70;100308.31;5031854;28;19929;-76
2021/08/02 05:14:45;;;;;;;;;;;;;;;14.41;90.73;100312.91;5031758;28;20381;-76
2021/08/02 05:17:10;;;;;;;;;;;;;;;14.50;90.97;100317.16;5032519;28;20621;-77
2021/08/02 05:19:36;;;;;;;;;;;;;;;14.61;91.30;100313.22;5031716;28;19918;-77
2021/08/02 05:22:01;;;;;;;;;;;;;;;14.67;89.86;100320.50;5032227;28;19975;-75
2021/08/02 05:24:27;;;;;;;;;;;;;;;14.75;90.37;100325.69;5031897;28;19925;-76
2021/08/02 05:26:52;;;;;;;;;;;;;;;14.86;90.27;100325.25;5032207;28;20342;-76
2021/08/02 05:29:17;;;;;;;;;;;;;;;14.95;89.85;100330.50;5032036;28;19917;-76
2021/08/02 05:31:42;;;;;;;;;;;;;;;15.07;89.48;100324.50;5031717;28;19982;-76
2021/08/02 05:34:07;;;;;;;;;;;;;;;15.29;88.95;100321.88;5031752;28;20035;-76
2021/08/02 05:36:33;;;;;;;;;;;;;;;15.56;87.67;100328.31;5031832;28;19921;-75
2021/08/02 05:38:58;;;;;;;;;;;;;;;15.89;87.92;100333.19;5024535;28;19924;-76
2021/08/02 05:41:23;;;;;;;;;;;;;;;16.31;87.73;100326.97;5031546;28;19921;-76
2021/08/02 05:43:48;;;;;;;;;;;;;;;16.70;84.58;100327.41;5030332;28;19995;-76
2021/08/02 05:46:14;;;;;;;;;;;;;;;17.07;83.68;100336.88;5030953;28;20328;-76
2021/08/02 05:48:39;;;;;;;;;;;;;;;17.56;85.17;100330.44;5031767;28;20360;-76
2021/08/02 05:51:04;;;;;;;;;;;;;;;17.86;83.51;100338.16;5030089;28;19967;-76
2021/08/02 05:53:29;;;;;;;;;;;;;;;18.03;76.79;100325.22;5031213;28;19964;-75
2021/08/02 05:55:54;;;;;;;;;;;;;;;18.16;77.41;100335.06;5030889;28;19921;-77
2021/08/02 05:58:20;;;;;;;;;;;;;;;18.19;77.63;100334.69;5031033;28;19929;-76
2021/08/02 06:00:45;;;;;;;;;;;;;;;18.03;77.23;100342.06;5030994;28;19921;-76
2021/08/02 06:03:10;;;;;;;;;;;;;;;18.39;76.88;100338.16;5029763;28;19921;-76
2021/08/02 06:05:35;;;;;;;;;;;;;;;18.74;76.78;100342.44;5031103;28;19921;-76
2021/08/02 06:08:00;;;;;;;;;;;;;;;19.04;73.23;100338.25;5030459;28;19925;-76
2021/08/02 06:10:26;;;;;;;;;;;;;;;19.23;74.73;100352.59;5031291;28;19948;-76
2021/08/02 06:12:51;;;;;;;;;;;;;;;19.33;72.52;100346.78;5023519;28;19929;-76
2021/08/02 06:15:16;;;;;;;;;;;;;;;19.39;71.79;100348.59;5029269;28;19925;-76
2021/08/02 06:17:41;;;;;;;;;;;;;;;19.66;72.88;100348.44;5029307;28;19963;-76
2021/08/02 06:20:07;;;;;;;;;;;;;;;19.95;71.81;100376.59;5031170;28;19941;-76
2021/08/02 06:22:32;;;;;;;;;;;;;;;19.99;69.05;100364.34;5029524;28;20008;-77
2021/08/02 06:24:57;;;;;;;;;;;;;;;20.05;69.88;100360.81;5029131;28;19925;-75
2021/08/02 06:27:23;;;;;;;;;;;;;;;19.79;69.01;100363.69;5031134;28;20020;-75
2021/08/02 06:29:48;;;;;;;;;;;;;;;19.84;68.51;100361.16;5029467;28;19948;-76
2021/08/02 06:32:13;;;;;;;;;;;;;;;20.07;69.67;100364.09;5030916;28;19925;-76
2021/08/02 06:34:38;;;;;;;;;;;;;;;20.41;67.78;100359.28;5030687;28;20008;-75
2021/08/02 06:37:03;;;;;;;;;;;;;;;20.37;67.40;100360.75;5030795;28;20443;-76
2021/08/02 06:39:29;;;;;;;;;;;;;;;20.71;67.35;100369.34;5031723;28;20023;-76
2021/08/02 06:41:54;;;;;;;;;;;;;;;20.70;65.54;100373.06;5029835;28;19940;-76
2021/08/02 06:44:19;;;;;;;;;;;;;;;20.70;65.64;100367.72;5030898;28;19933;-76
2021/08/02 06:46:44;;;;;;;;;;;;;;;20.85;65.37;100364.66;5030834;28;19933;-76
2021/08/02 06:49:09;;;;;;;;;;;;;;;20.97;64.71;100369.06;5030414;28;19936;-76
2021/08/02 06:51:35;;;;;;;;;;;;;;;21.03;63.44;100371.91;5030536;28;19925;-76
2021/08/02 06:54:00;;;;;;;;;;;;;;;20.77;63.67;100363.91;5030026;28;20304;-76
2021/08/02 06:56:25;;;;;;;;;;;;;;;21.26;64.54;100357.75;5030142;28;20329;-76
2021/08/02 06:58:51;;;;;;;;;;;;;;;21.67;61.20;100354.34;5030635;28;19921;-76
2021/08/02 07:01:16;;;;;;;;;;;;;;;21.97;60.67;100361.53;5030050;28;19928;-78
2021/08/02 07:03:41;;;;;;;;;;;;;;;22.45;60.51;100363.25;5028764;28;19925;-76
2021/08/02 07:06:06;;;;;;;;;;;;;;;22.40;60.07;100373.94;5029429;28;20413;-76
2021/08/02 07:08:32;;;;;;;;;;;;;;;22.32;60.36;100375.09;5029688;28;20006;-76
2021/08/02 07:10:57;;;;;;;;;;;;;;;22.16;60.25;100379.25;5030168;28;19966;-76
2021/08/02 07:13:22;;;;;;;;;;;;;;;22.09;58.70;100385.81;5028571;28;19917;-76
2021/08/02 07:15:50;;;;;;;;;;;;;;;21.33;59.79;100371.94;5030607;28;20010;-75
2021/08/02 07:18:16;;;;;;;;;;;;;;;20.96;61.65;100378.16;5023194;28;19928;-76
2021/08/02 07:20:41;;;;;;;;;;;;;;;20.87;61.74;100376.81;5028932;28;20370;-77
2021/08/02 07:23:06;;;;;;;;;;;;;;;20.60;63.32;100376.28;5028245;28;20548;-76
2021/08/02 07:25:32;;;;;;;;;;;;;;;20.47;63.77;100377.19;5029756;28;19952;-75
2021/08/02 07:27:57;;;;;;;;;;;;;;;20.24;64.49;100385.03;5030012;28;19929;-76
2021/08/02 07:30:22;;;;;;;;;;;;;;;20.27;63.87;100380.03;5026596;28;19932;-76
2021/08/02 07:32:47;;;;;;;;;;;;;;;20.13;64.40;100384.69;5029477;28;19928;-76
2021/08/02 07:35:13;;;;;;;;;;;;;;;20.05;64.42;100381.47;5029115;28;19928;-76
2021/08/02 07:37:38;;;;;;;;;;;;;;;20.08;64.98;100384.53;5029160;28;19922;-75
2021/08/02 07:40:04;;;;;;;;;;;;;;;20.09;64.72;100378.13;5028609;28;19925;-77
2021/08/02 07:42:30;;;;;;;;;;;;;;;20.03;65.13;100383.53;5029527;28;20461;-76
2021/08/02 07:44:55;;;;;;;;;;;;;;;19.92;66.24;100387.72;5027526;28;19926;-75
2021/08/02 07:47:20;;;;;;;;;;;;;;;19.93;67.01;100384.03;5029096;28;19937;-76
2021/08/02 07:49:45;;;;;;;;;;;;;;;20.00;65.69;100384.81;5029714;28;19917;-76
2021/08/02 07:52:11;;;;;;;;;;;;;;;19.89;64.84;100383.63;5029762;28;19992;-75
2021/08/02 07:54:36;;;;;;;;;;;;;;;19.73;66.27;100381.44;5030499;28;19981;-76
2021/08/02 07:57:01;;;;;;;;;;;;;;;19.61;66.41;100378.59;5029419;28;19977;-75
2021/08/02 07:59:26;;;;;;;;;;;;;;;19.55;66.59;100378.66;5029975;28;19945;-76
2021/08/02 08:01:51;;;;;;;;;;;;;;;19.57;67.07;100374.72;5029708;28;20382;-77
2021/08/02 08:04:17;;;;;;;;;;;;;;;19.56;66.20;100377.59;5028697;28;19929;-76
2021/08/02 08:06:46;;;;;;;;;;;;;;;19.53;66.65;100377.00;5029611;28;19968;-76
2021/08/02 08:09:11;;;;;;;;;;;;;;;19.48;66.52;100384.88;5029787;28;19925;-76
2021/08/02 08:11:36;;;;;;;;;;;;;;;19.61;65.75;100383.16;5029679;28;20282;-76
2021/08/02 08:14:02;;;;;;;;;;;;;;;19.52;66.70;100382.56;5021112;28;19921;-76
2021/08/02 08:16:27;;;;;;;;;;;;;;;19.50;66.61;100382.78;5030957;28;19925;-76
2021/08/02 08:18:53;;;;;;;;;;;;;;;19.50;66.88;100374.75;5032959;28;19921;-76
2021/08/02 08:21:18;;;;;;;;;;;;;;;19.41;67.27;100380.56;5033872;28;20012;-76
2021/08/02 08:23:43;;;;;;;;;;;;;;;19.39;66.64;100374.59;5032564;28;19928;-75
2021/08/02 08:26:09;;;;;;;;;;;;;;;19.52;66.46;100379.88;5032750;28;19921;-76
2021/08/02 08:28:34;;;;;;;;;;;;;;;19.49;66.66;100375.78;5033439;28;19917;-76
2021/08/02 08:30:59;;;;;;;;;;;;;;;19.57;66.94;100381.91;5033195;28;19917;-76
2021/08/02 08:33:26;;;;;;;;;;;;;;;19.50;67.65;100385.47;5033142;28;20484;-75
2021/08/02 08:35:52;;;;;;;;;;;;;;;19.40;68.34;100384.28;5032395;28;19964;-75
2021/08/02 08:38:17;;;;;;;;;;;;;;;19.58;67.93;100392.44;5032666;28;20370;-75
2021/08/02 08:40:42;;;;;;;;;;;;;;;19.52;68.26;100390.59;5032903;28;20004;-75
2021/08/02 08:43:08;;;;;;;;;;;;;;;19.59;67.15;100394.06;5033263;28;19951;-76
2021/08/02 08:45:33;;;;;;;;;;;;;;;19.51;67.04;100383.59;5033549;28;19932;-75
2021/08/02 08:47:58;;;;;;;;;;;;;;;19.46;67.67;100383.44;5033455;28;19963;-76
2021/08/02 08:50:24;;;;;;;;;;;;;;;19.58;67.47;100383.59;5031833;28;19925;-75
2021/08/02 08:52:54;;;;;;;;;;;;;;;19.56;69.36;100388.34;5032818;28;19962;-75
2021/08/02 08:55:19;;;;;;;;;;;;;;;19.56;69.78;100389.16;5031646;28;20592;-75
2021/08/02 08:57:46;;;;;;;;;;;;;;;19.64;69.02;100388.91;5030665;28;19928;-76
2021/08/02 09:00:18;;;;;;;;;;;;;;;19.83;67.90;100392.56;5028367;28;19932;-76
2021/08/02 09:02:43;;;;;;;;;;;;;;;19.81;67.85;100399.19;5032555;28;19940;-75
2021/08/02 09:05:09;;;;;;;;;;;;;;;19.92;66.52;100395.78;5032697;28;19921;-76
2021/08/02 09:07:35;;;;;;;;;;;;;;;20.00;66.14;100397.38;5032934;28;20015;-76
2021/08/02 09:10:01;;;;;;;;;;;;;;;19.88;67.57;100399.97;5030020;28;19941;-75
2021/08/02 09:12:26;;;;;;;;;;;;;;;19.88;67.85;100398.09;5032408;28;20397;-75
2021/08/02 09:14:52;;;;;;;;;;;;;;;20.02;68.00;100396.16;5032789;28;20305;-75
2021/08/02 09:17:34;;;;;;;;;;;;;;;20.39;67.34;100396.25;5031077;28;20524;-76
2021/08/02 09:20:00;;;;;;;;;;;;;;;20.57;65.20;100390.16;5031212;28;19956;-76
2021/08/02 09:22:30;;;;;;;;;;;;;;;20.81;66.59;100390.31;5031294;28;19936;-76
2021/08/02 09:25:12;;;;;;;;;;;;;;;21.18;65.46;100397.34;5031094;28;19948;-76
2021/08/02 09:27:38;;;;;;;;;;;;;;;21.35;64.55;100402.13;5030128;28;19928;-76
2021/08/02 09:30:17;;;;;;;;;;;;;;;21.26;63.11;100400.78;5032109;28;19947;-75
2021/08/02 09:33:03;;;;;;;;;;;;;;;21.25;63.70;100394.59;5017315;28;19961;-76
2021/08/02 09:35:29;;;;;;;;;;;;;;;21.31;63.54;100391.00;5031321;28;19925;-76
2021/08/02 09:37:59;;;;;;;;;;;;;;;21.42;62.97;100387.56;5031574;28;19917;-77
2021/08/02 09:40:24;;;;;;;;;;;;;;;21.25;64.25;100383.00;5031324;28;19960;-75
2021/08/02 09:42:54;;;;;;;;;;;;;;;21.50;62.76;100388.31;5031089;28;19968;-75
2021/08/02 09:45:19;;;;;;;;;;;;;;;21.63;61.97;100386.25;5031776;28;19917;-76
2021/08/02 09:47:47;;;;;;;;;;;;;;;21.56;63.41;100382.03;5029867;28;20059;-75
2021/08/02 09:50:23;;;;;;;;;;;;;;;21.68;61.61;100376.69;5029621;28;20014;-75
2021/08/02 09:52:52;;;;;;;;;;;;;;;21.75;61.45;100374.72;5031247;28;20071;-75
2021/08/02 09:55:17;;;;;;;;;;;;;;;22.00;61.42;100375.38;5031339;28;19921;-75
2021/08/02 09:57:43;;;;;;;;;;;;;;;22.08;61.44;100376.91;5031637;28;19928;-74
2021/08/02 10:00:10;;;;;;;;;;;;;;;22.20;59.98;100372.41;5030748;28;19960;-75
2021/08/02 10:02:36;;;;;;;;;;;;;;;22.06;60.41;100379.00;5031209;28;19932;-75
2021/08/02 10:05:01;;;;;;;;;;;;;;;21.98;60.70;100369.41;5030556;28;19921;-75
2021/08/02 10:07:26;;;;;;;;;;;;;;;22.12;61.34;100364.63;5030965;28;19925;-75
2021/08/02 10:09:52;;;;;;;;;;;;;;;22.21;62.21;100371.31;5030923;28;20309;-76
2021/08/02 10:12:17;;;;;;;;;;;;;;;22.32;61.49;100369.72;5030387;28;19962;-75
2021/08/02 10:14:43;;;;;;;;;;;;;;;22.61;60.01;100361.75;5030078;28;19929;-76
2021/08/02 10:17:10;;;;;;;;;;;;;;;22.88;57.38;100362.06;5024715;28;20013;-76
2021/08/02 10:19:37;;;;;;;;;;;;;;;23.11;56.85;100364.75;5031122;28;20004;-75
2021/08/02 10:22:02;;;;;;;;;;;;;;;22.94;55.48;100365.72;5030529;28;20004;-75
2021/08/02 10:24:27;;;;;;;;;;;;;;;23.06;57.41;100358.44;5030211;28;20024;-76
2021/08/02 10:26:56;;;;;;;;;;;;;;;23.10;55.75;100363.13;5030242;28;19971;-75
2021/08/02 10:29:21;;;;;;;;;;;;;;;23.23;54.09;100356.63;5031245;28;19921;-76
2021/08/02 10:31:48;;;;;;;;;;;;;;;23.02;55.32;100352.69;5031594;28;19929;-76
2021/08/02 10:34:14;;;;;;;;;;;;;;;23.08;57.29;100357.13;5030798;28;19967;-77
2021/08/02 10:36:40;;;;;;;;;;;;;;;23.18;55.29;100348.44;5029608;28;19917;-76
2021/08/02 10:39:05;;;;;;;;;;;;;;;23.35;54.90;100345.78;5029825;28;19964;-75
2021/08/02 10:41:32;;;;;;;;;;;;;;;23.24;54.30;100346.63;5030799;28;19921;-75
2021/08/02 10:43:58;;;;;;;;;;;;;;;23.59;54.87;100340.28;5030740;28;19936;-75
2021/08/02 10:46:24;;;;;;;;;;;;;;;23.98;51.36;100337.72;5030324;28;19925;-77
2021/08/02 10:48:51;;;;;;;;;;;;;;;24.06;51.36;100326.53;5029570;28;20354;-77
2021/08/02 10:51:17;;;;;;;;;;;;;;;23.97;52.94;100330.72;5030693;28;20025;-75
2021/08/02 10:53:43;;;;;;;;;;;;;;;24.24;51.58;100329.00;5030087;28;19960;-76
2021/08/02 10:56:08;;;;;;;;;;;;;;;24.21;50.93;100331.34;5029540;28;19921;-76
2021/08/02 10:58:39;;;;;;;;;;;;;;;23.84;51.65;100331.84;5029773;28;19921;-75
2021/08/02 11:01:10;;;;;;;;;;;;;;;23.85;50.52;100328.91;5029352;28;19929;-76
2021/08/02 11:03:36;;;;;;;;;;;;;;;24.12;50.48;100325.53;5030116;28;20344;-76
2021/08/02 11:06:06;;;;;;;;;;;;;;;24.18;48.04;100316.47;5024650;28;19967;-73
2021/08/02 11:08:35;;;;;;;;;;;;;;;24.20;49.24;100308.94;5014231;28;19966;-73
2021/08/02 11:11:03;;;;;;;;;;;;;;;24.67;48.88;100308.53;5030072;28;19921;-74
2021/08/02 11:13:29;;;;;;;;;;;;;;;24.34;48.40;100309.41;5030574;28;20012;-73
2021/08/02 11:15:54;;;;;;;;;;;;;;;24.19;50.13;100320.78;5030326;28;20044;-73
2021/08/02 11:18:23;;;;;;;;;;;;;;;23.69;51.09;100313.47;5028838;28;20392;-73
2021/08/02 11:20:49;;;;;;;;;;;;;;;23.69;50.89;100314.31;5029612;28;19921;-73
2021/08/02 11:23:14;;;;;;;;;;;;;;;23.74;50.99;100311.72;5029940;28;19932;-73
2021/08/02 11:25:40;;;;;;;;;;;;;;;23.81;51.57;100310.72;5030211;28;19917;-74
2021/08/02 11:28:05;;;;;;;;;;;;;;;23.56;51.03;100309.19;5029707;28;19917;-74
2021/08/02 11:30:31;;;;;;;;;;;;;;;23.57;50.35;100304.63;5030414;28;19974;-73
2021/08/02 11:32:57;;;;;;;;;;;;;;;23.41;51.05;100298.16;5030609;28;19929;-74
2021/08/02 11:35:35;;;;;;;;;;;;;;;23.81;51.82;100302.63;5029633;28;19929;-74
2021/08/02 11:38:00;;;;;;;;;;;;;;;23.93;50.09;100306.91;5030274;28;19952;-73
2021/08/02 11:40:32;;;;;;;;;;;;;;;23.98;50.83;100306.16;5028828;28;19964;-73
2021/08/02 11:43:01;;;;;;;;;;;;;;;24.27;49.46;100306.06;5027585;28;19925;-73
2021/08/02 11:45:28;;;;;;;;;;;;;;;24.46;48.18;100301.19;5029923;28;19931;-73
2021/08/02 11:47:53;;;;;;;;;;;;;;;24.17;49.08;100307.53;5030081;28;19921;-74
2021/08/02 11:50:19;;;;;;;;;;;;;;;24.23;50.00;100303.03;5029621;28;20449;-74
2021/08/02 11:52:46;;;;;;;;;;;;;;;24.33;48.31;100296.94;5029143;28;19913;-73
2021/08/02 11:55:13;;;;;;;;;;;;;;;24.43;48.86;100310.63;5029247;28;19921;-73
2021/08/02 11:57:38;;;;;;;;;;;;;;;24.50;48.12;100302.34;5029892;28;20399;-74
2021/08/02 12:00:11;;;;;;;;;;;;;;;24.51;49.23;100309.41;5027798;28;20004;-73
2021/08/02 12:02:38;;;;;;;;;;;;;;;24.45;48.18;100296.84;5029002;28;19925;-73
2021/08/02 12:05:04;;;;;;;;;;;;;;;24.53;49.22;100293.75;5028818;28;19925;-73
2021/08/02 12:07:32;;;;;;;;;;;;;;;24.79;48.02;100303.00;5029752;28;19928;-73
2021/08/02 12:10:18;;;;;;;;;;;;;;;24.85;47.35;100296.59;5029504;28;20008;-74
2021/08/02 12:13:03;;;;;;;;;;;;;;;24.60;48.82;100291.69;5028875;28;20413;-73
2021/08/02 12:15:29;;;;;;;;;;;;;;;24.72;49.09;100289.69;5028699;28;19922;-74
2021/08/02 12:17:55;;;;;;;;;;;;;;;24.70;50.65;100304.53;5029832;28;19917;-73
2021/08/02 12:20:31;;;;;;;;;;;;;;;24.77;47.92;100297.03;5027580;28;19975;-73
2021/08/02 12:22:56;;;;;;;;;;;;;;;24.53;50.17;100293.75;5028518;28;20866;-73
2021/08/02 12:25:32;;;;;;;;;;;;;;;24.82;46.83;100288.97;5021037;28;20019;-73
2021/08/02 12:27:58;;;;;;;;;;;;;;;24.59;48.49;100290.03;5025557;28;20043;-73
2021/08/02 12:30:23;;;;;;;;;;;;;;;24.61;47.70;100289.78;5021271;28;20008;-74
2021/08/02 12:32:48;;;;;;;;;;;;;;;24.95;46.80;100293.19;5022954;28;20071;-73